Time;durP1;ratioP1;P1;durP2;ratioP2;P2;SDS_P1;SDS_P2;PMS_P1;PMS_P2;Temp;Humidity;BMP_temperature;BMP_pressure;BME280_temperature;BME280_humidity;BME280_pressure;Samples;Min_cycle;Max_cycle;Signal;HPM_P1;HPM_P2
2022/12/09 00:02:06;;;;;;;55.03;25.38;;;;;;;7.32;93.30;99513.63;5000688;28;20030;-74
2022/12/09 00:04:32;;;;;;;56.90;25.83;;;;;;;7.42;93.40;99502.25;4997701;28;20057;-74
2022/12/09 00:06:58;;;;;;;58.15;24.95;;;;;;;7.35;93.30;99505.47;4992783;28;20093;-74
2022/12/09 00:09:23;;;;;;;55.25;24.05;;;;;;;7.41;92.40;99501.44;4992935;28;20080;-74
2022/12/09 00:11:51;;;;;;;63.30;25.20;;;;;;;7.29;92.89;99496.41;4996012;28;20060;-74
2022/12/09 00:14:19;;;;;;;55.92;24.00;;;;;;;7.21;93.24;99508.28;4994819;28;20030;-74
2022/12/09 00:16:45;;;;;;;55.03;25.35;;;;;;;7.16;94.03;99509.22;5003933;28;20081;-73
2022/12/09 00:19:10;;;;;;;54.58;23.77;;;;;;;6.98;94.99;99505.41;4992716;28;20030;-74
2022/12/09 00:21:36;;;;;;;53.03;22.42;;;;;;;6.86;95.40;99517.03;4994291;28;20018;-74
2022/12/09 00:24:04;;;;;;;48.78;21.20;;;;;;;6.65;96.22;99521.38;4992417;28;20023;-74
2022/12/09 00:26:31;;;;;;;52.47;24.52;;;;;;;6.66;96.58;99509.13;4998521;28;20514;-73
2022/12/09 00:28:57;;;;;;;57.10;24.73;;;;;;;6.60;96.33;99516.75;5013238;28;20049;-74
2022/12/09 00:31:26;;;;;;;49.72;22.42;;;;;;;6.69;96.56;99519.63;5009885;28;20022;-74
2022/12/09 00:33:55;;;;;;;53.90;23.23;;;;;;;6.80;95.09;99511.91;4992629;28;20101;-74
2022/12/09 00:36:22;;;;;;;55.53;23.05;;;;;;;6.84;95.06;99521.28;5010578;28;20392;-73
2022/12/09 00:38:48;;;;;;;47.17;21.90;;;;;;;6.76;96.21;99508.09;4996294;28;20124;-74
2022/12/09 00:41:14;;;;;;;45.90;21.38;;;;;;;6.84;96.16;99522.09;4993821;28;20509;-74
2022/12/09 00:43:41;;;;;;;53.47;23.70;;;;;;;6.74;95.61;99520.34;4993294;28;20030;-74
2022/12/09 00:46:07;;;;;;;55.67;21.73;;;;;;;6.97;95.09;99525.19;4993699;28;20044;-74
2022/12/09 00:48:38;;;;;;;49.92;22.95;;;;;;;7.11;94.51;99527.97;5008009;28;20042;-73
2022/12/09 00:51:09;;;;;;;45.38;20.65;;;;;;;7.19;93.64;99520.84;4993538;28;20444;-74
2022/12/09 00:53:35;;;;;;;52.40;21.02;;;;;;;7.21;93.91;99507.44;4991837;28;20026;-74
2022/12/09 00:56:00;;;;;;;50.30;20.92;;;;;;;7.01;93.96;99509.53;5025040;28;20022;-74
2022/12/09 00:58:26;;;;;;;49.92;18.88;;;;;;;6.88;95.03;99512.03;4991941;28;20026;-74
2022/12/09 01:00:55;;;;;;;46.42;21.00;;;;;;;6.97;95.02;99505.72;4992602;28;20492;-73
2022/12/09 01:03:21;;;;;;;45.17;21.45;;;;;;;6.82;95.39;99501.31;5002970;28;20435;-74
2022/12/09 01:05:47;;;;;;;52.60;21.50;;;;;;;6.71;97.06;99500.69;5021781;28;20065;-73
2022/12/09 01:08:14;;;;;;;45.15;20.15;;;;;;;6.63;97.09;99499.44;4993504;28;20019;-74
2022/12/09 01:10:43;;;;;;;45.90;20.33;;;;;;;6.72;97.24;99513.44;5012698;28;20053;-74
2022/12/09 01:13:09;;;;;;;48.53;20.40;;;;;;;6.57;97.30;99509.84;5001979;28;20026;-74
2022/12/09 01:15:36;;;;;;;44.30;20.63;;;;;;;6.69;97.01;99514.06;5006407;28;20034;-74
2022/12/09 01:18:01;;;;;;;39.80;17.92;;;;;;;6.60;97.07;99513.97;5009918;28;20120;-74
2022/12/09 01:20:27;;;;;;;35.70;17.08;;;;;;;6.69;96.74;99512.09;5003477;28;20101;-74
2022/12/09 01:22:52;;;;;;;34.60;17.20;;;;;;;6.67;96.48;99499.66;4992489;28;20014;-74
2022/12/09 01:25:18;;;;;;;35.53;16.08;;;;;;;6.59;96.79;99512.31;4991144;28;20041;-74
2022/12/09 01:27:43;;;;;;;33.13;16.17;;;;;;;6.49;97.75;99502.19;4997149;28;20026;-74
2022/12/09 01:30:11;;;;;;;30.75;16.15;;;;;;;6.52;97.83;99504.38;4999836;28;20026;-74
2022/12/09 01:32:37;;;;;;;36.70;17.33;;;;;;;6.41;98.68;99498.19;4992614;28;20456;-74
2022/12/09 01:35:04;;;;;;;38.70;15.80;;;;;;;6.35;99.76;99504.13;4992317;28;20030;-74
2022/12/09 01:37:34;;;;;;;30.38;15.02;;;;;;;6.46;99.39;99500.03;4991177;28;20026;-74
2022/12/09 01:40:00;;;;;;;33.17;16.17;;;;;;;6.45;100.00;99493.66;4993210;28;20484;-74
2022/12/09 01:42:26;;;;;;;32.67;15.52;;;;;;;6.59;99.41;99495.66;4992628;28;20033;-74
2022/12/09 01:45:23;;;;;;;33.47;15.68;;;;;;;6.64;98.62;99508.63;4995048;28;20604;-74
2022/12/09 01:47:59;;;;;;;33.88;16.23;;;;;;;6.56;98.58;99497.06;4992718;28;20534;-74
2022/12/09 01:50:26;;;;;;;32.88;14.73;;;;;;;6.58;98.67;99508.69;4999221;28;20447;-74
2022/12/09 01:52:52;;;;;;;35.38;16.42;;;;;;;6.58;98.61;99497.59;5011882;28;20029;-73
2022/12/09 01:55:18;;;;;;;30.88;16.08;;;;;;;6.62;99.08;99494.19;4997601;28;20030;-74
2022/12/09 01:57:45;;;;;;;27.10;14.65;;;;;;;6.52;99.05;99484.09;4991560;28;20026;-74
2022/12/09 02:00:11;;;;;;;33.72;17.63;;;;;;;6.64;99.06;99486.38;4991075;28;20034;-74
2022/12/09 02:02:39;;;;;;;35.05;15.80;;;;;;;6.84;98.62;99497.06;4991890;28;20401;-74
2022/12/09 02:05:05;;;;;;;35.25;15.50;;;;;;;6.83;97.35;99495.44;5000731;28;20104;-74
2022/12/09 02:07:31;;;;;;;27.20;14.43;;;;;;;6.67;97.72;99491.31;5011875;28;20033;-74
2022/12/09 02:09:56;;;;;;;28.27;13.20;;;;;;;6.74;98.04;99500.06;5010393;28;20022;-74
2022/12/09 02:12:28;;;;;;;37.78;15.30;;;;;;;6.83;97.41;99503.78;5010284;28;20022;-74
2022/12/09 02:15:02;;;;;;;25.08;12.90;;;;;;;6.78;97.31;99492.75;5001496;28;20030;-74
2022/12/09 02:17:58;;;;;;;25.10;12.88;;;;;;;6.63;97.95;99481.94;5011617;28;20485;-74
2022/12/09 02:20:41;;;;;;;24.63;13.93;;;;;;;6.64;97.73;99473.28;4997988;28;20533;-74
2022/12/09 02:23:27;;;;;;;25.02;13.75;;;;;;;6.80;97.75;99482.16;4992917;28;20018;-74
2022/12/09 02:25:59;;;;;;;25.02;13.25;;;;;;;6.88;96.84;99483.38;4992354;28;20041;-74
2022/12/09 02:28:41;;;;;;;25.88;13.32;;;;;;;6.88;97.19;99483.38;5001528;28;20041;-74
2022/12/09 02:31:25;;;;;;;33.47;13.43;;;;;;;6.95;96.15;99477.41;5010787;28;20074;-74
2022/12/09 02:34:09;;;;;;;24.30;12.68;;;;;;;7.09;95.73;99478.19;5010378;28;20030;-74
2022/12/09 02:36:59;;;;;;;29.17;13.55;;;;;;;7.12;95.25;99466.47;4996614;28;20026;-74
2022/12/09 02:39:51;;;;;;;23.00;12.87;;;;;;;7.16;94.62;99472.22;5003823;28;20034;-74
2022/12/09 02:42:20;;;;;;;25.83;14.00;;;;;;;7.16;94.87;99470.28;4997010;28;20027;-74
2022/12/09 02:44:49;;;;;;;31.05;13.93;;;;;;;7.19;94.37;99462.44;5010830;28;20030;-74
2022/12/09 02:47:18;;;;;;;27.55;13.20;;;;;;;7.25;93.92;99466.75;4997954;28;20026;-74
2022/12/09 02:49:49;;;;;;;23.88;13.20;;;;;;;7.36;93.55;99467.34;5003371;28;20038;-74
2022/12/09 02:52:15;;;;;;;;;;;;;;;7.34;93.43;99472.41;5013753;28;20038;-74
2022/12/09 02:54:42;;;;;;;31.27;13.25;;;;;;;7.23;93.61;99467.06;4996603;28;19917;-74
2022/12/09 02:57:14;;;;;;;31.33;14.85;;;;;;;7.31;93.50;99484.97;4995076;28;20049;-74
2022/12/09 02:59:40;;;;;;;28.42;13.82;;;;;;;7.19;93.84;99495.81;4995321;28;20172;-74
2022/12/09 03:02:18;;;;;;;28.17;14.20;;;;;;;7.21;93.83;99490.75;5001280;28;20492;-74
2022/12/09 03:04:55;;;;;;;29.50;12.32;;;;;;;7.24;94.11;99484.56;5006686;28;20096;-74
2022/12/09 03:07:45;;;;;;;30.35;14.00;;;;;;;7.31;93.80;99496.09;4994072;28;20026;-74
2022/12/09 03:10:42;;;;;;;34.63;13.60;;;;;;;7.37;93.33;99483.72;4994034;28;20121;-74
2022/12/09 03:13:22;;;;;;;28.20;12.75;;;;;;;7.22;93.28;99484.88;4994041;28;20034;-74
2022/12/09 03:15:53;;;;;;;30.98;14.70;;;;;;;6.97;94.66;99489.88;4999131;28;20030;-74
2022/12/09 03:18:20;;;;;;;37.92;20.60;;;;;;;7.02;95.30;99500.88;4996413;28;20034;-74
2022/12/09 03:20:47;;;;;;;30.42;14.90;;;;;;;7.01;95.78;99513.13;4995035;28;20069;-74
2022/12/09 03:23:16;;;;;;;35.28;16.13;;;;;;;7.11;94.73;99492.63;5001877;28;20017;-74
2022/12/09 03:25:48;;;;;;;26.73;14.25;;;;;;;7.08;95.29;99486.88;5007846;28;20025;-74
2022/12/09 03:28:42;;;;;;;32.58;14.88;;;;;;;7.10;96.14;99509.63;5006458;28;20033;-74
2022/12/09 03:31:13;;;;;;;30.50;14.30;;;;;;;7.24;95.27;99517.94;4997835;28;20447;-73
2022/12/09 03:33:41;;;;;;;27.75;14.98;;;;;;;7.10;95.54;99518.78;5004323;28;20033;-74
2022/12/09 03:36:09;;;;;;;35.03;15.73;;;;;;;7.27;94.99;99536.81;4994652;28;20081;-74
2022/12/09 03:38:38;;;;;;;31.77;15.43;;;;;;;6.82;97.21;99529.94;4994061;28;20133;-74
2022/12/09 03:41:31;;;;;;;32.20;15.55;;;;;;;7.08;96.41;99528.59;4994731;28;20064;-74
2022/12/09 03:44:33;;;;;;;26.90;14.40;;;;;;;7.23;95.03;99519.91;4999158;28;20026;-74
2022/12/09 03:46:59;;;;;;;31.48;16.90;;;;;;;7.05;96.09;99499.44;4992784;28;20046;-74
2022/12/09 03:49:24;;;;;;;35.03;16.92;;;;;;;7.14;95.84;99497.56;5009470;28;20096;-74
2022/12/09 03:51:57;;;;;;;33.90;15.40;;;;;;;7.25;95.68;99500.94;5009397;28;20027;-74
2022/12/09 03:54:31;;;;;;;31.85;15.63;;;;;;;7.20;95.33;99511.38;4995752;28;20144;-74
2022/12/09 03:56:57;;;;;;;31.27;16.08;;;;;;;7.38;94.93;99512.38;4994099;28;20084;-74
2022/12/09 03:59:27;;;;;;;38.40;16.35;;;;;;;7.46;93.97;99506.06;4993615;28;20053;-74
2022/12/09 04:01:53;;;;;;;31.73;13.93;;;;;;;7.42;93.79;99513.38;4994100;28;20156;-74
2022/12/09 04:04:19;;;;;;;31.33;14.48;;;;;;;7.47;93.50;99509.66;4993580;28;20023;-74
2022/12/09 04:06:46;;;;;;;34.45;15.48;;;;;;;7.43;93.79;99499.16;4993251;28;20409;-74
2022/12/09 04:09:11;;;;;;;32.95;14.10;;;;;;;7.49;93.49;99499.06;4998432;28;20492;-74
2022/12/09 04:11:37;;;;;;;31.27;13.75;;;;;;;7.48;92.96;99489.03;5013530;28;20083;-73
2022/12/09 04:14:02;;;;;;;32.92;13.93;;;;;;;7.41;92.92;99483.91;4998358;28;20430;-74
2022/12/09 04:16:28;;;;;;;35.92;15.70;;;;;;;7.27;93.37;99484.75;4994061;28;20404;-74
2022/12/09 04:18:53;;;;;;;29.48;14.88;;;;;;;7.30;94.07;99481.38;5005449;28;20030;-74
2022/12/09 04:21:19;;;;;;;34.72;15.07;;;;;;;7.41;93.66;99490.31;5009613;28;20152;-74
2022/12/09 04:23:44;;;;;;;30.88;15.75;;;;;;;7.48;93.49;99491.81;5008313;28;20053;-73
2022/12/09 04:26:15;;;;;;;33.67;14.80;;;;;;;7.50;92.97;99492.34;4993885;28;20026;-74
2022/12/09 04:28:40;;;;;;;26.35;13.52;;;;;;;7.42;93.27;99486.38;4993036;28;20611;-74
2022/12/09 04:31:10;;;;;;;32.63;16.10;;;;;;;7.44;93.61;99484.09;4995779;28;20038;-74
2022/12/09 04:33:36;;;;;;;31.40;14.75;;;;;;;7.49;93.28;99487.94;4993570;28;20088;-74
2022/12/09 04:36:06;;;;;;;26.00;13.75;;;;;;;7.45;92.77;99474.63;4993635;28;20026;-74
2022/12/09 04:38:31;;;;;;;28.58;15.38;;;;;;;7.48;93.21;99483.47;5001701;28;20208;-74
2022/12/09 04:40:59;;;;;;;27.85;15.25;;;;;;;7.50;93.20;99482.03;5009757;28;20069;-74
2022/12/09 04:43:24;;;;;;;35.13;14.43;;;;;;;7.47;92.76;99492.97;5012954;28;20044;-74
2022/12/09 04:45:49;;;;;;;26.23;15.18;;;;;;;7.52;92.88;99485.31;5013149;28;20065;-73
2022/12/09 04:48:15;;;;;;;30.98;15.30;;;;;;;7.59;92.57;99498.78;5005049;28;20099;-74
2022/12/09 04:50:40;;;;;;;31.63;16.08;;;;;;;7.54;92.76;99498.94;5008719;28;20041;-74
2022/12/09 04:53:06;;;;;;;33.47;16.85;;;;;;;7.59;92.45;99493.22;5001723;28;20027;-74
2022/12/09 04:55:31;;;;;;;47.88;15.80;;;;;;;7.54;92.49;99507.28;4993403;28;20030;-74
2022/12/09 04:57:57;;;;;;;30.90;15.32;;;;;;;7.15;94.49;99498.38;4992956;28;20033;-74
2022/12/09 05:00:22;;;;;;;34.75;17.38;;;;;;;7.37;93.97;99491.25;4992025;28;20027;-74
2022/12/09 05:02:48;;;;;;;32.72;17.58;;;;;;;7.47;93.40;99509.66;5006608;28;20022;-74
2022/12/09 05:05:13;;;;;;;31.80;16.20;;;;;;;7.55;93.24;99506.13;5011914;28;20026;-73
2022/12/09 05:07:39;;;;;;;30.58;16.25;;;;;;;7.56;92.87;99502.22;5009188;28;20026;-74
2022/12/09 05:10:05;;;;;;;32.80;16.00;;;;;;;7.54;92.91;99508.13;5012587;28;20053;-74
2022/12/09 05:12:32;;;;;;;30.60;15.88;;;;;;;7.54;92.99;99504.50;5012679;28;20021;-74
2022/12/09 05:14:57;;;;;;;29.77;15.68;;;;;;;7.27;94.08;99506.22;5011484;28;20046;-74
2022/12/09 05:17:23;;;;;;;32.00;16.80;;;;;;;7.32;94.15;99508.88;5011078;28;20089;-74
2022/12/09 05:19:49;;;;;;;39.35;14.70;;;;;;;7.36;93.88;99515.47;5003742;28;20489;-74
2022/12/09 05:22:16;;;;;;;31.70;15.55;;;;;;;7.25;94.56;99514.88;5005459;28;20033;-74
2022/12/09 05:24:43;;;;;;;33.55;15.05;;;;;;;7.23;94.54;99499.59;5011225;28;20120;-74
2022/12/09 05:27:09;;;;;;;37.55;16.30;;;;;;;7.19;94.98;99513.34;5011100;28;20041;-74
2022/12/09 05:29:35;;;;;;;30.48;15.10;;;;;;;7.09;95.11;99506.00;4992509;28;20030;-74
2022/12/09 05:32:00;;;;;;;34.75;16.17;;;;;;;7.10;95.31;99507.66;4994204;28;20489;-74
2022/12/09 05:34:25;;;;;;;34.17;15.10;;;;;;;7.10;94.77;99502.09;5012421;28;20080;-74
2022/12/09 05:36:51;;;;;;;37.47;16.05;;;;;;;7.06;94.64;99509.44;5012125;28;20101;-74
2022/12/09 05:39:17;;;;;;;34.60;14.45;;;;;;;6.75;97.08;99512.81;4995255;28;20057;-74
2022/12/09 05:41:42;;;;;;;37.10;13.70;;;;;;;6.93;97.21;99515.81;4996772;28;20053;-74
2022/12/09 05:44:11;;;;;;;33.85;15.20;;;;;;;6.76;97.27;99513.66;4995971;28;20042;-74
2022/12/09 05:46:37;;;;;;;40.10;16.98;;;;;;;6.69;97.78;99509.31;4992253;28;20082;-74
2022/12/09 05:49:02;;;;;;;33.15;15.82;;;;;;;6.88;97.38;99522.31;5003901;28;20440;-74
2022/12/09 05:51:29;;;;;;;33.22;15.93;;;;;;;6.87;97.58;99517.88;4994508;28;20087;-75
2022/12/09 05:53:56;;;;;;;30.90;14.45;;;;;;;6.73;98.08;99517.88;4990757;28;20481;-75
2022/12/09 05:56:23;;;;;;;29.50;13.93;;;;;;;6.66;99.17;99521.06;5004966;28;20121;-77
2022/12/09 05:58:49;;;;;;;31.35;15.43;;;;;;;6.95;97.63;99524.69;4996515;28;20030;-74
2022/12/09 06:01:16;;;;;;;35.00;15.70;;;;;;;7.05;96.57;99531.97;4990607;28;20101;-74
2022/12/09 06:03:42;;;;;;;87.03;24.15;;;;;;;7.16;95.96;99538.97;4996540;28;20034;-73
2022/12/09 06:06:12;;;;;;;31.33;14.68;;;;;;;6.84;96.81;99541.56;4996879;28;20053;-74
2022/12/09 06:08:38;;;;;;;34.20;15.48;;;;;;;6.92;97.32;99548.34;4994114;28;20504;-72
2022/12/09 06:11:07;;;;;;;37.38;14.68;;;;;;;7.10;96.38;99545.78;4990874;28;20046;-77
2022/12/09 06:13:32;;;;;;;31.33;17.67;;;;;;;7.19;95.42;99548.66;5025332;28;20109;-73
2022/12/09 06:16:03;;;;;;;32.00;16.80;;;;;;;7.30;94.62;99552.88;4998247;28;20212;-76
2022/12/09 06:18:28;;;;;;;33.47;16.77;;;;;;;7.37;94.95;99556.09;4999037;28;20405;-73
2022/12/09 06:20:54;;;;;;;34.55;16.05;;;;;;;7.43;94.03;99563.16;4996287;28;20080;-71
2022/12/09 06:23:19;;;;;;;72.60;44.97;;;;;;;7.36;94.67;99559.16;4991641;28;20030;-71
2022/12/09 06:25:45;;;;;;;38.92;20.95;;;;;;;7.40;93.65;99549.03;4992051;28;20056;-72
2022/12/09 06:28:10;;;;;;;80.35;41.03;;;;;;;7.45;93.43;99563.69;5000188;28;20412;-73
2022/12/09 06:30:36;;;;;;;70.40;31.50;;;;;;;7.21;94.30;99552.78;4992278;28;20186;-72
2022/12/09 06:33:02;;;;;;;51.25;24.20;;;;;;;7.04;95.59;99570.09;5000279;28;20022;-72
2022/12/09 06:35:27;;;;;;;40.17;22.15;;;;;;;6.83;97.20;99567.72;4992313;28;20046;-72
2022/12/09 06:37:53;;;;;;;42.78;25.42;;;;;;;6.88;97.30;99575.13;4997777;28;20045;-75
2022/12/09 06:40:21;;;;;;;40.38;20.98;;;;;;;7.09;96.32;99564.44;4998388;28;20491;-72
2022/12/09 06:42:50;;;;;;;38.88;21.30;;;;;;;7.22;95.20;99567.50;4988488;28;20034;-74
2022/12/09 06:45:19;;;;;;;46.45;24.40;;;;;;;7.32;94.61;99566.50;4994912;28;20095;-73
2022/12/09 06:47:45;;;;;;;46.55;22.90;;;;;;;7.40;93.72;99566.59;5000993;28;20030;-73
2022/12/09 06:50:11;;;;;;;76.03;43.63;;;;;;;7.29;93.31;99573.50;4997091;28;20064;-73
2022/12/09 06:52:37;;;;;;;354.92;61.83;;;;;;;7.36;94.69;99575.84;4997993;28;20042;-71
2022/12/09 06:55:07;;;;;;;86.38;51.50;;;;;;;7.39;93.49;99567.72;4999145;28;20022;-70
2022/12/09 06:57:33;;;;;;;43.20;21.60;;;;;;;7.41;93.89;99561.81;4993402;28;20135;-71
2022/12/09 07:00:00;;;;;;;46.38;24.83;;;;;;;7.37;93.47;99567.22;5001847;28;20041;-71
2022/12/09 07:02:26;;;;;;;42.72;19.83;;;;;;;7.10;94.43;99566.06;4994058;28;20041;-74
2022/12/09 07:04:53;;;;;;;32.13;17.67;;;;;;;6.50;97.95;99559.44;4994749;28;20045;-71
2022/12/09 07:07:18;;;;;;;262.60;164.52;;;;;;;6.52;99.12;99553.56;4990806;28;20065;-74
2022/12/09 07:09:43;;;;;;;54.00;31.90;;;;;;;6.76;98.85;99558.13;4997439;28;20073;-74
2022/12/09 07:12:09;;;;;;;116.25;59.08;;;;;;;7.01;97.31;99560.41;5005772;28;20026;-74
2022/12/09 07:14:35;;;;;;;53.83;26.65;;;;;;;6.96;97.03;99570.81;5008682;28;20029;-74
2022/12/09 07:17:01;;;;;;;35.42;17.70;;;;;;;6.99;96.80;99568.25;5007118;28;20037;-75
2022/12/09 07:19:28;;;;;;;37.30;17.90;;;;;;;7.01;96.69;99565.16;5001109;28;20069;-74
2022/12/09 07:21:53;;;;;;;30.95;18.55;;;;;;;7.19;96.13;99568.97;4994025;28;20164;-70
2022/12/09 07:24:19;;;;;;;56.38;39.90;;;;;;;7.27;95.90;99576.59;4994064;28;20034;-73
2022/12/09 07:26:45;;;;;;;36.95;20.10;;;;;;;6.97;96.38;99559.41;5002418;28;20042;-72
2022/12/09 07:29:10;;;;;;;45.50;20.65;;;;;;;6.82;97.22;99560.50;4997883;28;20066;-73
2022/12/09 07:31:36;;;;;;;42.63;19.08;;;;;;;6.32;99.66;99567.53;4999496;28;20030;-73
2022/12/09 07:34:03;;;;;;;53.92;24.80;;;;;;;6.37;100.00;99563.00;5011383;28;20082;-74
2022/12/09 07:36:30;;;;;;;35.05;19.88;;;;;;;6.65;100.00;99554.75;5008417;28;20500;-74
2022/12/09 07:39:00;;;;;;;43.10;19.17;;;;;;;6.47;100.00;99543.38;5010757;28;20053;-72
2022/12/09 07:41:26;;;;;;;54.13;20.15;;;;;;;6.60;99.91;99564.81;4996630;28;20030;-74
2022/12/09 07:43:51;;;;;;;41.78;20.85;;;;;;;6.24;100.00;99557.09;5001183;28;20034;-73
2022/12/09 07:46:18;;;;;;;36.58;20.50;;;;;;;6.28;100.00;99558.16;5009549;28;20030;-73
2022/12/09 07:48:45;;;;;;;40.15;18.55;;;;;;;6.62;100.00;99572.00;5013969;28;20480;-74
2022/12/09 07:51:10;;;;;;;53.13;24.58;;;;;;;6.59;100.00;99570.69;4997897;28;20112;-72
2022/12/09 07:53:36;;;;;;;35.92;18.80;;;;;;;6.48;100.00;99580.34;5001929;28;20034;-71
2022/12/09 07:56:10;;;;;;;36.17;20.05;;;;;;;6.53;100.00;99558.84;5012581;28;20496;-75
2022/12/09 07:58:36;;;;;;;39.78;16.38;;;;;;;6.58;100.00;99564.28;5005542;28;20053;-71
2022/12/09 08:01:12;;;;;;;39.90;19.58;;;;;;;6.86;98.96;99558.75;5003904;28;20037;-72
2022/12/09 08:03:41;;;;;;;56.03;31.77;;;;;;;6.90;98.92;99564.53;5006439;28;20018;-73
2022/12/09 08:06:09;;;;;;;43.67;20.17;;;;;;;6.75;98.04;99557.31;5010540;28;20493;-72
2022/12/09 08:08:35;;;;;;;39.47;17.95;;;;;;;6.52;99.84;99561.91;5002432;28;20511;-72
2022/12/09 08:11:31;;;;;;;29.90;16.08;;;;;;;6.41;100.00;99566.84;4997261;28;20022;-73
2022/12/09 08:13:58;;;;;;;38.35;19.30;;;;;;;6.86;100.00;99558.75;4993796;28;20117;-73
2022/12/09 08:16:25;;;;;;;38.30;18.40;;;;;;;7.03;98.53;99557.34;5004597;28;20540;-73
2022/12/09 08:18:51;;;;;;;34.22;17.20;;;;;;;7.28;96.92;99558.75;5025811;28;20467;-74
2022/12/09 08:21:24;;;;;;;32.15;18.95;;;;;;;7.43;95.71;99565.94;4995740;28;20030;-73
2022/12/09 08:23:50;;;;;;;34.95;18.25;;;;;;;7.48;94.89;99569.75;5006662;28;20053;-73
2022/12/09 08:26:20;;;;;;;33.95;16.40;;;;;;;7.27;94.89;99573.78;5014050;28;20030;-74
2022/12/09 08:28:45;;;;;;;33.67;17.30;;;;;;;7.25;96.22;99569.69;5004003;28;20107;-74
2022/12/09 08:31:13;;;;;;;30.27;17.13;;;;;;;7.24;94.67;99573.59;4996847;28;20112;-74
2022/12/09 08:33:40;;;;;;;41.25;17.77;;;;;;;7.30;95.26;99572.34;4998997;28;20042;-77
2022/12/09 08:36:09;;;;;;;38.70;18.88;;;;;;;7.48;94.39;99578.09;5005023;28;20097;-74
2022/12/09 08:38:35;;;;;;;36.85;19.65;;;;;;;7.26;94.66;99574.13;5006173;28;20022;-73
2022/12/09 08:41:33;;;;;;;36.22;16.95;;;;;;;7.34;95.01;99570.59;4999215;28;20555;-74
2022/12/09 08:44:20;;;;;;;44.28;19.63;;;;;;;7.44;94.01;99578.72;4998153;28;20030;-74
2022/12/09 08:46:48;;;;;;;35.17;20.27;;;;;;;7.46;94.43;99581.22;5008787;28;20045;-73
2022/12/09 08:49:18;;;;;;;43.65;20.83;;;;;;;6.82;97.00;99571.63;4995316;28;20042;-74
2022/12/09 08:51:45;;;;;;;41.10;22.02;;;;;;;6.83;97.91;99566.91;4998042;28;20491;-74
2022/12/09 08:54:11;;;;;;;46.67;22.35;;;;;;;6.90;97.76;99560.94;4997442;28;20038;-74
2022/12/09 08:56:36;;;;;;;41.00;20.70;;;;;;;7.16;96.67;99567.63;4993539;28;20443;-74
2022/12/09 08:59:02;;;;;;;39.63;21.00;;;;;;;7.22;95.88;99575.84;4993237;28;20081;-74
2022/12/09 09:01:33;;;;;;;36.45;20.88;;;;;;;7.36;95.23;99576.69;4999643;28;20096;-75
2022/12/09 09:04:00;;;;;;;39.97;23.40;;;;;;;7.55;94.60;99561.81;5011439;28;20021;-74
2022/12/09 09:06:26;;;;;;;36.55;21.52;;;;;;;7.52;93.97;99551.31;5012386;28;20463;-74
2022/12/09 09:08:51;;;;;;;40.15;22.00;;;;;;;7.62;93.38;99539.94;5010813;28;20034;-72
2022/12/09 09:11:19;;;;;;;57.20;21.27;;;;;;;7.51;93.67;99535.75;4998403;28;20033;-72
2022/12/09 09:13:47;;;;;;;58.90;21.02;;;;;;;7.62;93.52;99520.47;4998592;28;20099;-74
2022/12/09 09:16:15;;;;;;;42.85;20.83;;;;;;;7.59;93.24;99507.16;4998121;28;20089;-75
2022/12/09 09:18:41;;;;;;;43.83;19.58;;;;;;;7.78;92.78;99517.31;4999187;28;20068;-76
2022/12/09 09:21:08;;;;;;;46.47;23.50;;;;;;;7.59;92.81;99510.75;5004030;28;20072;-73
2022/12/09 09:23:33;;;;;;;42.13;24.60;;;;;;;7.68;93.46;99501.69;4997777;28;20029;-72
2022/12/09 09:25:59;;;;;;;48.78;24.08;;;;;;;7.84;93.22;99490.97;5004035;28;20049;-74
2022/12/09 09:28:24;;;;;;;43.45;23.67;;;;;;;7.79;91.83;99497.50;4992622;28;20034;-73
2022/12/09 09:31:00;;;;;;;47.70;24.15;;;;;;;7.84;92.13;99493.75;5008917;28;20037;-73
2022/12/09 09:33:26;;;;;;;44.30;23.23;;;;;;;8.15;91.85;99509.72;4993097;28;20446;-76
2022/12/09 09:35:59;;;;;;;42.35;23.88;;;;;;;8.17;91.62;99499.06;4993893;28;20121;-72
2022/12/09 09:38:26;;;;;;;46.13;23.55;;;;;;;7.86;91.98;99499.84;5009049;28;20033;-75
2022/12/09 09:40:52;;;;;;;42.83;22.92;;;;;;;7.79;92.30;99508.66;5009579;28;20030;-71
2022/12/09 09:43:21;;;;;;;41.85;23.38;;;;;;;7.83;91.88;99490.16;5006946;28;20484;-71
2022/12/09 09:45:48;;;;;;;50.55;28.13;;;;;;;7.73;92.87;99505.16;5004990;28;20480;-70
2022/12/09 09:48:21;;;;;;;48.00;25.23;;;;;;;7.85;91.65;99501.00;5011489;28;20487;-69
2022/12/09 09:51:20;;;;;;;45.85;24.90;;;;;;;7.66;92.37;99493.63;5007582;28;20025;-70
2022/12/09 09:53:49;;;;;;;51.30;27.30;;;;;;;7.90;93.03;99494.44;4989272;28;20046;-72
2022/12/09 09:56:33;;;;;;;45.70;25.90;;;;;;;7.91;92.12;99480.22;5030960;28;20033;-69
2022/12/09 09:59:17;;;;;;;43.33;24.95;;;;;;;7.95;92.41;99472.84;5034453;28;20053;-73
2022/12/09 10:01:53;;;;;;;59.50;31.95;;;;;;;7.68;92.37;99471.84;5011329;28;20030;-69
2022/12/09 10:04:51;;;;;;;180.15;136.15;;;;;;;7.99;93.27;99470.28;4997935;28;20551;-73
2022/12/09 10:07:37;;;;;;;701.97;335.52;;;;;;;8.22;92.20;99450.75;4995834;28;20054;-72
2022/12/09 10:10:36;;;;;;;344.45;173.85;;;;;;;8.55;92.94;99436.50;4998696;28;20037;-72
2022/12/09 10:13:40;;;;;;;1999.90;906.88;;;;;;;8.78;94.20;99434.44;5001871;28;20022;-73
2022/12/09 10:16:15;;;;;;;1999.90;999.90;;;;;;;8.88;93.42;99421.34;4978778;28;20046;-72
2022/12/09 10:19:06;;;;;;;1999.90;999.90;;;;;;;9.05;94.50;99426.97;5020557;28;20069;-70
2022/12/09 10:21:35;;;;;;;1999.90;999.90;;;;;;;9.20;95.97;99425.66;4996807;28;20097;-71
2022/12/09 10:24:17;;;;;;;1946.47;856.95;;;;;;;9.22;89.17;99411.38;4994813;28;20078;-75
2022/12/09 10:26:55;;;;;;;1781.88;751.30;;;;;;;9.12;89.19;99409.75;4997685;28;20669;-71
2022/12/09 10:29:48;;;;;;;1999.90;999.90;;;;;;;9.18;93.31;99411.19;5000821;28;20491;-77
2022/12/09 10:32:17;;;;;;;1741.88;807.97;;;;;;;9.02;88.26;99410.84;4997044;28;21425;-76
2022/12/09 10:34:44;;;;;;;1999.90;999.90;;;;;;;9.18;91.93;99396.44;4994835;28;20037;-77
2022/12/09 10:37:22;;;;;;;1999.90;999.90;;;;;;;9.17;91.47;99394.78;4992143;28;20026;-72
2022/12/09 10:40:09;;;;;;;1999.90;858.45;;;;;;;9.18;89.73;99400.03;5008302;28;20156;-75
2022/12/09 10:45:44;;;;;;;1966.65;824.70;;;;;;;9.29;92.59;99375.44;4995486;28;20048;-75
2022/12/09 10:48:32;;;;;;;1999.90;940.45;;;;;;;9.21;90.29;99363.09;4992978;28;20027;-85
2022/12/09 10:51:05;;;;;;;1999.90;999.90;;;;;;;9.43;92.39;99360.47;5001131;28;20042;-76
2022/12/09 10:53:34;;;;;;;1473.82;589.90;;;;;;;9.55;90.78;99380.19;5002854;28;20038;-72
2022/12/09 10:56:01;;;;;;;1999.90;999.90;;;;;;;9.64;91.51;99367.00;4993135;28;20030;-70
2022/12/09 10:58:30;;;;;;;628.42;374.80;;;;;;;9.70;85.23;99367.66;5003599;28;20065;-71
2022/12/09 11:01:09;;;;;;;70.85;38.40;;;;;;;9.72;83.18;99378.50;5005489;28;20492;-74
2022/12/09 11:03:46;;;;;;;76.57;35.42;;;;;;;9.48;84.06;99368.66;4992332;28;20045;-73
2022/12/09 11:06:39;;;;;;;41.20;22.42;;;;;;;9.06;84.55;99361.63;4991222;28;20053;-74
2022/12/09 11:09:04;;;;;;;41.85;19.75;;;;;;;8.90;86.19;99350.13;4996301;28;20097;-75
2022/12/09 11:11:49;;;;;;;41.35;21.95;;;;;;;8.73;88.33;99359.31;4998733;28;20070;-72
2022/12/09 11:14:21;;;;;;;45.00;22.20;;;;;;;8.60;89.74;99357.47;4991059;28;20464;-73
2022/12/09 11:17:17;;;;;;;35.78;20.33;;;;;;;8.54;89.85;99365.97;5000565;28;20045;-72
2022/12/09 11:19:46;;;;;;;43.97;24.23;;;;;;;8.71;89.07;99358.81;5010790;28;20053;-74
2022/12/09 11:22:40;;;;;;;46.25;19.42;;;;;;;8.69;88.87;99375.06;5011947;28;20048;-71
2022/12/09 11:25:11;;;;;;;33.22;17.23;;;;;;;8.66;89.25;99356.16;5004747;28;20025;-74
2022/12/09 11:27:47;;;;;;;48.70;28.00;;;;;;;8.77;89.21;99351.91;4995199;28;20816;-74
2022/12/09 11:30:29;;;;;;;103.10;47.40;;;;;;;8.71;87.73;99353.22;5004761;28;20049;-74
2022/12/09 11:32:57;;;;;;;68.53;30.90;;;;;;;8.76;88.04;99353.06;5001210;28;20466;-74
2022/12/09 11:35:28;;;;;;;50.70;23.98;;;;;;;8.83;88.27;99349.78;5006778;28;20428;-74
2022/12/09 11:37:55;;;;;;;64.18;34.65;;;;;;;8.86;88.13;99357.50;5006089;28;20084;-71
2022/12/09 11:40:24;;;;;;;46.05;23.52;;;;;;;8.50;88.67;99351.03;5003909;28;20554;-74
2022/12/09 11:42:55;;;;;;;45.50;20.50;;;;;;;8.46;89.11;99350.03;5004338;28;20110;-74